Latest Weather Observations for Bathurst Airport

IDN60801

Issued at 4:32 pm EDT Thursday 8 December 2016 (issued every 30 minutes, with the page automatically refreshed every 10 minutes)

About weather observations | Map of weather stations | Latest weather observations for NSW | Other Formats
Station Details ID: 063291 Name: BATHURST AIRPORT AWS Lat: -33.41 Lon: 149.65 Height: 744.5 m
Data from the previous 72 hours. | See also: Recent months at Bathurst Airport
Date/Time
EDT
Temp
°C
App
Temp
°C
Dew
Point
°C
Rel
Hum
%
Delta-T
°C
Wind Press
QNH
hPa
Press
MSL
hPa
Rain since
9am
mm
Dir  Spd
km/h
Gust
km/h
Spd
kts
Gust
kts
08/04:30pm 29.4 23.4 10.0 30 11.3 NW 32 43 17 23 1002.3 998.9 0.0
08/04:00pm 30.6 24.4 10.0 28 12.1 NW 33 48 18 26 1002.7 999.3 0.0
08/03:30pm 29.6 22.8 9.2 28 11.7 NW 35 48 19 26 1003.6 1000.2 0.0
08/03:03pm 30.4 24.3 9.8 28 12.0 NW 32 50 17 27 1004.2 1000.9 0.0
08/03:00pm 31.2 25.5 11.1 29 12.0 NW 32 46 17 25 1004.2 1000.9 0.0
08/02:32pm 31.1 25.2 11.0 29 12.0 NW 33 48 18 26 1004.6 1001.2 0.0
08/02:30pm 30.3 24.2 10.3 29 11.7 NW 33 52 18 28 1004.7 1001.3 0.0
08/02:05pm 30.2 23.9 9.7 28 11.9 NNW 33 56 18 30 1005.1 1001.7 0.0
08/02:00pm 30.7 25.3 12.1 32 11.3 NW 32 43 17 23 1005.1 1001.7 0.0
08/01:30pm 30.3 25.0 13.1 34 10.5 NNW 33 52 18 28 1005.7 1002.4 0.0
08/01:25pm 29.4 23.7 11.9 34 10.5 NNW 33 52 18 28 1005.8 1002.5 0.0
08/01:00pm 29.7 25.1 13.5 37 10.0 NNW 30 43 16 23 1006.7 1003.4 0.0
08/12:30pm 28.3 23.2 13.0 39 9.3 NNW 32 46 17 25 1007.6 1004.3 0.0
08/12:00pm 28.5 23.0 13.6 40 9.2 NNW 35 50 19 27 1008.1 1004.8 0.0
08/11:30am 28.3 23.7 14.5 43 8.6 N 32 41 17 22 1008.3 1005.0 0.0
08/11:00am 24.5 21.5 13.7 51 6.6 NNW 22 35 12 19 1008.7 1005.4 0.0
08/10:30am 26.1 21.6 14.9 50 7.0 NNW 32 48 17 26 1009.1 1005.8 0.0
08/10:26am 26.1 22.3 14.6 49 7.1 NNW 28 48 15 26 1009.1 1005.8 0.0
08/10:00am 25.3 21.7 15.3 54 6.2 NNW 28 33 15 18 1009.6 1006.3 0.0
08/09:30am 23.9 21.7 15.9 61 5.0 NNW 22 30 12 16 1010.1 1006.9 0.0
08/09:00am 22.2 21.9 16.5 70 3.6 NNW 13 20 7 11 1010.5 1007.2 0.0
08/08:30am 18.7 19.8 15.6 82 1.9 WNW 4 7 2 4 1011.4 1008.2 0.0
08/08:00am 16.6 17.7 15.5 93 0.7 SW 4 7 2 4 1011.8 1008.5 0.0
08/07:30am 14.9 15.4 14.9 100 0.0 SW 6 7 3 4 1011.8 1008.5 0.0
08/07:00am 13.9 15.1 13.9 100 0.0 CALM 0 0 0 0 1012.0 1008.7 0.0
08/06:56am 13.6 14.7 13.6 100 0.0 CALM 0 0 0 0 1011.9 1008.6 0.0
08/06:30am 12.4 13.2 12.4 100 0.0 CALM 0 0 0 0 1012.1 1008.8 0.0
08/06:05am 11.8 12.4 11.8 100 0.0 CALM 0 9 0 5 1012.3 1009.0 0.0
08/06:03am 11.9 12.5 11.9 100 0.0 CALM 0 0 0 0 1012.2 1008.9 0.0
08/06:00am 11.8 12.4 11.8 100 0.0 CALM 0 0 0 0 1012.2 1008.9 0.0
08/05:49am 11.9 12.5 11.9 100 0.0 CALM 0 0 0 0 1012.1 1008.8 0.0
08/05:32am 11.9 12.5 11.9 100 0.0 CALM 0 4 0 2 1012.1 1008.8 0.0
08/05:30am 12.0 12.2 12.0 100 0.0 SSE 2 4 1 2 1012.1 1008.8 0.0
08/05:24am 11.8 12.0 11.8 100 0.0 SSE 2 6 1 3 1012.0 1008.7 0.0
08/05:13am 11.8 11.0 11.8 100 0.0 SSE 7 9 4 5 1012.1 1008.8 0.0
08/05:00am 11.7 11.1 11.7 100 0.0 SSE 6 7 3 4 1012.2 1008.9 0.0
08/04:30am 12.2 12.9 12.2 100 0.0 CALM 0 0 0 0 1012.0 1008.7 0.0
08/04:17am 12.6 13.0 12.6 100 0.0 SSE 2 6 1 3 1012.2 1008.9 0.0
08/04:12am 13.6 13.6 13.6 100 0.0 SSE 6 6 3 3 1012.2 1008.9 0.0
08/04:00am 13.5 13.8 13.5 100 0.0 SSW 4 9 2 5 1011.9 1008.6 0.0
08/03:52am 13.6 14.7 13.6 100 0.0 CALM 0 0 0 0 1012.2 1008.9 0.0
08/03:30am 13.7 14.9 13.7 100 0.0 CALM 0 0 0 0 1012.5 1009.3 0.0
08/03:00am 13.8 15.0 13.8 100 0.0 CALM 0 0 0 0 1013.0 1009.8 0.0
08/02:30am 13.9 14.0 13.9 100 0.0 WSW 6 7 3 4 1013.3 1010.0 0.0
08/02:00am 14.2 14.3 11.4 83 1.6 S 2 6 1 3 1013.6 1010.4 0.0
08/01:30am 15.3 15.1 13.5 89 1.0 S 7 9 4 5 1014.1 1010.9 0.0
08/01:00am 15.0 14.1 10.8 76 2.3 SSW 6 7 3 4 1014.6 1011.3 0.0
08/12:30am 14.5 14.5 9.9 74 2.5 CALM 0 0 0 0 1014.7 1011.4 0.0
08/12:00am 14.1 14.5 11.1 82 1.7 CALM 0 0 0 0 1014.8 1011.6 0.0
 
Date/Time
EDT
Temp
°C
App
Temp
°C
Dew
Point
°C
Rel
Hum
%
Delta-T
°C
Wind Press
QNH
hPa
Press
MSL
hPa
Rain since
9am
mm
Dir  Spd
km/h
Gust
km/h
Spd
kts
Gust
kts
07/11:30pm 14.9 13.7 12.9 88 1.1 NE 11 11 6 6 1015.0 1011.8 0.0
07/11:00pm 14.5 12.4 9.9 74 2.5 NE 11 11 6 6 1015.1 1011.9 0.0
07/10:30pm 15.8 12.8 7.8 59 4.2 ENE 13 15 7 8 1015.1 1011.9 0.0
07/10:00pm 16.0 14.0 7.0 55 4.6 NE 7 9 4 5 1015.1 1011.9 0.0
07/09:30pm 19.6 16.4 4.9 38 7.4 ESE 11 13 6 7 1014.9 1011.7 0.0
07/09:00pm 20.0 17.1 4.9 37 7.6 SE 9 11 5 6 1014.9 1011.7 0.0
07/08:30pm 20.9 17.6 4.5 34 8.3 S 11 13 6 7 1014.8 1011.6 0.0
07/08:00pm 20.4 17.1 4.8 36 7.9 SW 11 15 6 8 1015.0 1011.8 0.0
07/07:30pm 23.5 19.8 4.5 29 9.8 SW 13 19 7 10 1014.9 1011.7 0.0
07/07:00pm 24.8 19.9 4.0 26 10.7 SW 19 22 10 12 1014.8 1011.6 0.0
07/06:30pm 25.3 19.7 3.3 24 11.2 SW 22 28 12 15 1014.7 1011.4 0.0
07/06:00pm 26.3 21.5 5.8 27 11.0 SW 20 28 11 15 1014.6 1011.3 0.0
07/05:30pm 26.3 20.7 5.3 26 11.1 SW 24 33 13 18 1014.2 1011.0 0.0
07/05:00pm 26.7 22.6 6.2 27 11.1 WSW 17 26 9 14 1014.2 1011.0 0.0
07/04:30pm 26.6 22.6 6.6 28 10.9 WNW 17 28 9 15 1014.4 1011.2 0.0
07/04:00pm 27.3 23.5 7.7 29 10.9 W 17 28 9 15 1014.6 1011.3 0.0
07/03:30pm 27.7 23.7 6.5 26 11.6 NW 17 30 9 16 1015.0 1011.8 0.0
07/03:00pm 27.3 24.7 9.2 32 10.3 NNW 13 20 7 11 1015.2 1012.0 0.0
07/02:30pm 25.7 22.1 8.2 33 9.7 WNW 17 28 9 15 1015.5 1012.3 0.0
07/02:00pm 25.7 22.3 9.1 35 9.4 W 17 26 9 14 1015.8 1012.6 0.0
07/01:30pm 24.7 22.8 9.0 37 8.8 N 9 19 5 10 1016.1 1012.9 0.0
07/01:00pm 24.8 21.4 9.1 37 8.8 W 17 24 9 13 1016.5 1013.3 0.0
07/12:30pm 23.9 20.8 8.7 38 8.4 WSW 15 24 8 13 1016.8 1013.6 0.0
07/12:00pm 23.7 21.8 10.4 43 7.6 W 11 17 6 9 1016.9 1013.7 0.0
07/11:30am 22.3 21.1 11.7 51 6.1 SSW 9 15 5 8 1017.1 1013.9 0.0
07/11:00am 21.4 20.1 11.1 52 5.9 SW 9 15 5 8 1017.6 1014.4 0.0
07/10:30am 20.4 19.6 11.1 55 5.3 NNE 6 9 3 5 1017.5 1014.3 0.0
07/10:00am 19.7 19.1 10.4 55 5.2 N 4 7 2 4 1017.3 1014.2 0.0
07/09:30am 17.7 16.8 10.6 63 3.9 SW 6 9 3 5 1017.2 1014.1 0.0
07/09:00am 16.5 15.2 10.1 66 3.5 SW 7 11 4 6 1017.2 1014.1 4.8
07/08:30am 15.6 15.2 12.5 82 1.8 SW 6 9 3 5 1017.2 1014.1 4.8
07/08:00am 14.7 14.3 13.1 90 0.9 S 7 11 4 6 1017.0 1013.8 4.8
07/07:30am 13.6 12.7 12.5 93 0.6 S 9 13 5 7 1016.9 1013.7 4.8
07/07:00am 12.9 11.6 12.4 97 0.3 SSE 11 15 6 8 1016.7 1013.5 4.8
07/06:30am 11.8 11.0 11.8 100 0.0 SSW 7 9 4 5 1016.5 1013.3 4.8
07/06:00am 11.1 10.3 11.1 100 0.0 S 6 7 3 4 1016.3 1013.1 4.8
07/05:30am 11.4 10.6 11.2 99 0.1 S 6 7 3 4 1015.9 1012.7 4.8
07/05:00am 12.2 11.5 11.9 98 0.2 S 7 9 4 5 1015.4 1012.2 4.8
07/04:30am 12.2 11.7 12.0 99 0.1 SW 6 7 3 4 1015.3 1012.1 4.8
07/04:00am 12.9 12.0 12.7 99 0.1 SW 9 11 5 6 1014.9 1011.7 4.8
07/03:30am 12.9 13.0 12.7 99 0.1 E 4 6 2 3 1014.8 1011.6 4.8
07/03:00am 12.7 13.4 12.2 97 0.3 CALM 0 0 0 0 1015.3 1012.1 4.8
07/02:30am 12.7 11.7 11.1 90 0.9 SE 7 9 4 5 1015.7 1012.5 4.8
07/02:00am 13.2 11.8 12.3 94 0.5 SSE 11 13 6 7 1016.2 1013.0 4.6
07/01:30am 13.9 13.6 13.4 97 0.3 SSW 7 9 4 5 1017.1 1013.9 4.0
07/01:00am 14.5 13.7 12.9 90 0.9 SSW 9 11 5 6 1017.0 1013.8 3.0
07/12:30am 15.4 14.6 11.8 79 2.0 S 7 9 4 5 1016.2 1013.0 2.4
07/12:00am 15.4 15.0 12.3 82 1.8 S 6 7 3 4 1016.1 1012.9 2.4
 
Date/Time
EDT
Temp
°C
App
Temp
°C
Dew
Point
°C
Rel
Hum
%
Delta-T
°C
Wind Press
QNH
hPa
Press
MSL
hPa
Rain since
9am
mm
Dir  Spd
km/h
Gust
km/h
Spd
kts
Gust
kts
06/11:30pm 15.9 14.9 11.1 73 2.7 SE 7 9 4 5 1016.2 1013.0 2.4
06/11:00pm 16.3 14.5 10.8 70 3.0 SSE 11 13 6 7 1016.2 1013.0 2.4
06/10:30pm 16.5 15.2 11.4 72 2.9 S 9 11 5 6 1015.9 1012.7 2.4
06/10:00pm 16.6 15.9 13.1 80 2.0 S 9 11 5 6 1016.2 1013.0 2.4
06/09:30pm 16.8 15.1 15.7 93 0.7 SW 19 24 10 13 1016.3 1013.1 2.4
06/09:00pm 17.4 18.6 17.4 100 0.0 SW 7 11 4 6 1015.9 1012.7 2.4
06/08:30pm 16.9 18.1 16.9 100 0.0 NE 6 7 3 4 1015.7 1012.5 2.4
06/08:00pm 16.9 17.9 16.9 100 0.0 N 7 9 4 5 1015.5 1012.3 2.4
06/07:30pm 17.4 18.2 17.4 100 0.0 N 9 11 5 6 1015.1 1011.9 2.4
06/07:00pm 17.6 18.5 17.6 100 0.0 N 9 11 5 6 1014.9 1011.7 2.4
06/06:30pm 17.9 18.6 17.9 100 0.0 NNE 11 13 6 7 1014.6 1011.3 2.4
06/06:18pm 17.8 18.4 17.8 100 0.0 N 11 11 6 6 1014.6 1011.3 2.4
06/06:00pm 17.9 18.6 17.9 100 0.0 NNE 11 15 6 8 1014.3 1011.1 2.4
06/05:59pm 17.9 18.6 17.9 100 0.0 NNE 11 15 6 8 1014.3 1011.1 2.4
06/05:30pm 18.5 19.9 17.9 96 0.4 SSW 7 13 4 7 1014.2 1011.0 2.4
06/05:00pm 17.9 19.9 16.9 94 0.6 SSW 2 7 1 4 1014.6 1011.3 2.4
06/04:30pm 17.7 18.9 16.9 95 0.5 SSW 6 7 3 4 1014.8 1011.6 2.4
06/04:00pm 18.0 17.9 17.8 99 0.1 SW 15 20 8 11 1015.0 1011.8 2.0
06/03:30pm 17.9 15.5 17.4 97 0.3 SW 26 33 14 18 1015.2 1012.0 2.0
06/03:25pm 18.1 15.6 17.0 93 0.7 SW 26 32 14 17 1015.2 1012.0 1.8
06/03:12pm 18.7 17.3 18.7 100 0.0 SW 24 35 13 19 1015.0 1011.8 1.6
06/03:00pm 19.2 17.8 18.7 97 0.3 SW 24 28 13 15 1015.1 1011.9 0.8
06/02:30pm 20.0 20.5 19.3 96 0.5 WSW 15 20 8 11 1014.9 1011.7 0.8
06/02:00pm 20.5 19.9 18.4 88 1.3 W 19 26 10 14 1014.9 1011.7 0.6
06/01:30pm 21.6 20.8 17.2 76 2.8 W 17 22 9 12 1014.6 1011.3 0.4
06/01:00pm 22.8 21.5 19.0 79 2.5 W 24 30 13 16 1014.8 1011.6 0.4
06/12:30pm 21.5 19.1 17.3 77 2.7 W 26 35 14 19 1015.0 1011.8 0.2
06/12:00pm 23.9 20.5 15.7 60 5.1 WNW 28 35 15 19 1014.8 1011.6 0.0
06/11:30am 24.3 22.4 16.6 62 4.9 NW 22 30 12 16 1014.6 1011.3 0.0
06/11:00am 24.5 22.6 16.7 61 4.9 WNW 22 30 12 16 1014.6 1011.3 0.0
06/10:30am 24.5 24.1 17.2 63 4.7 NW 15 19 8 10 1014.1 1010.9 0.0
06/10:00am 24.1 23.2 16.9 64 4.6 WNW 17 28 9 15 1014.9 1011.7 0.0
06/09:30am 23.6 23.4 16.6 65 4.4 WNW 13 20 7 11 1014.8 1011.6 0.0
06/09:00am 24.0 24.2 17.7 68 4.1 NNW 13 22 7 12 1014.6 1011.3 1.4
06/08:30am 21.6 22.6 16.8 74 3.0 N 7 9 4 5 1014.6 1011.3 1.4
06/08:00am 21.4 22.4 17.8 80 2.3 NE 9 11 5 6 1014.4 1011.2 1.4
06/07:30am 19.9 20.9 19.4 97 0.3 ENE 13 17 7 9 1014.2 1011.0 1.4
06/07:00am 19.0 22.3 19.0 100 0.0 CALM 0 9 0 5 1014.4 1011.2 1.4
06/06:30am 18.7 21.1 18.7 100 0.0 WSW 4 9 2 5 1014.2 1011.0 1.4
06/06:00am 18.6 19.6 18.6 100 0.0 WSW 11 17 6 9 1013.8 1010.6 1.4
06/05:30am 18.7 21.1 18.7 100 0.0 SW 4 9 2 5 1013.2 1009.9 1.4
06/05:00am 18.7 21.7 18.5 99 0.1 CALM 0 0 0 0 1012.7 1009.5 1.4
06/04:30am 18.8 21.7 18.1 96 0.4 CALM 0 0 0 0 1012.7 1009.5 1.4
06/04:00am 19.1 20.7 17.9 93 0.8 S 6 7 3 4 1012.8 1009.6 1.4
06/03:30am 19.2 20.5 18.4 95 0.5 S 9 11 5 6 1012.8 1009.6 1.4
06/03:00am 19.0 21.8 18.0 94 0.6 CALM 0 0 0 0 1013.4 1010.1 1.4
06/02:30am 18.9 20.4 18.1 95 0.5 NE 7 11 4 6 1013.5 1010.2 1.4
06/02:00am 19.3 20.8 18.0 92 0.8 N 7 9 4 5 1013.8 1010.6 1.4
06/01:30am 19.3 22.5 18.8 97 0.3 CALM 0 0 0 0 1014.6 1011.3 1.4
06/01:00am 19.3 21.8 19.0 98 0.2 W 4 7 2 4 1014.4 1011.2 1.4
06/12:30am 19.7 21.8 18.2 91 1.0 SSW 4 9 2 5 1014.7 1011.4 1.4
06/12:00am 19.9 20.5 17.7 87 1.4 ENE 11 13 6 7 1014.9 1011.7 1.4
 
Date/Time
EDT
Temp
°C
App
Temp
°C
Dew
Point
°C
Rel
Hum
%
Delta-T
°C
Wind Press
QNH
hPa
Press
MSL
hPa
Rain since
9am
mm
Dir  Spd
km/h
Gust
km/h
Spd
kts
Gust
kts
05/11:30pm 20.0 20.3 17.8 87 1.4 E 13 15 7 8 1015.1 1011.9 1.4
05/11:00pm 20.0 21.3 17.2 84 1.8 NNW 6 15 3 8 1015.3 1012.1 1.4
05/10:30pm 19.8 20.1 17.0 84 1.8 NNW 11 13 6 7 1015.9 1012.7 1.4
05/10:00pm 22.0 20.9 15.4 66 4.1 W 15 17 8 9 1016.3 1013.1 0.6
05/09:30pm 23.7 23.7 14.1 55 5.8 SW 7 11 4 6 1015.3 1012.1 0.4
05/09:00pm 24.5 24.2 14.3 53 6.2 SSW 9 13 5 7 1014.8 1011.6 0.4
05/08:30pm 24.3 25.6 14.1 53 6.2 CALM 0 0 0 0 1014.6 1011.3 0.4
05/08:00pm 24.5 25.8 14.0 52 6.4 CALM 0 0 0 0 1014.2 1011.0 0.4
05/07:30pm 25.6 25.6 13.5 47 7.3 W 6 9 3 5 1013.8 1010.6 0.4
05/07:00pm 25.9 25.4 13.7 47 7.4 W 9 13 5 7 1013.6 1010.4 0.4
05/06:30pm 26.5 25.7 13.9 45 7.7 W 11 15 6 8 1013.0 1009.8 0.4
05/06:00pm 27.4 25.9 14.1 44 8.2 WSW 15 20 8 11 1012.7 1009.5 0.4
05/05:30pm 27.6 26.6 14.6 45 8.1 W 13 17 7 9 1012.5 1009.3 0.4
05/05:00pm 27.2 28.6 16.5 52 6.8 NNW 4 9 2 5 1012.7 1009.5 0.4

Other Formats:

Comma delimited format used in spreadsheet applications
http://www.bom.gov.au/fwo/IDN60801/IDN60801.94729.axf

JavaScript Object Notation format (JSON) in row-major order
http://www.bom.gov.au/fwo/IDN60801/IDN60801.94729.json